Time;durP1;ratioP1;P1;durP2;ratioP2;P2;SDS_P1;SDS_P2;PMS_P1;PMS_P2;Temp;Humidity;BMP_temperature;BMP_pressure;BME280_temperature;BME280_humidity;BME280_pressure;Samples;Min_cycle;Max_cycle;Signal;HPM_P1;HPM_P2
2022/11/26 00:00:19;;;;;;;28.20;16.37;;;7.30;99.90;;;;;;4968379;28;20217;-72
2022/11/26 00:02:46;;;;;;;28.30;15.93;;;7.30;99.90;;;;;;4968489;28;20227;-73
2022/11/26 00:05:14;;;;;;;33.60;16.97;;;7.30;99.90;;;;;;4968210;28;20293;-73
2022/11/26 00:07:47;;;;;;;26.43;16.63;;;7.30;99.90;;;;;;4968240;28;20310;-73
2022/11/26 00:10:19;;;;;;;27.23;16.40;;;7.30;99.90;;;;;;4968802;28;20290;-72
2022/11/26 00:12:46;;;;;;;27.53;15.70;;;7.30;99.90;;;;;;4968628;28;20234;-73
2022/11/26 00:15:20;;;;;;;31.27;15.80;;;7.30;99.90;;;;;;4968103;28;20234;-72
2022/11/26 00:17:47;;;;;;;29.00;16.37;;;7.30;99.90;;;;;;4967083;28;20291;-71
2022/11/26 00:20:15;;;;;;;26.63;16.93;;;7.30;99.90;;;;;;4969158;28;20211;-71
2022/11/26 00:22:45;;;;;;;25.87;16.17;;;7.30;99.90;;;;;;4968842;28;20822;-74
2022/11/26 00:25:18;;;;;;;27.87;15.80;;;7.30;99.90;;;;;;4968820;28;20305;-73
2022/11/26 00:27:46;;;;;;;30.27;16.80;;;7.30;99.90;;;;;;4968655;28;20317;-73
2022/11/26 00:30:18;;;;;;;27.23;16.13;;;7.30;99.90;;;;;;4975869;28;20220;-72
2022/11/26 00:32:45;;;;;;;23.23;16.07;;;7.40;99.90;;;;;;4968890;28;20485;-73
2022/11/26 00:35:13;;;;;;;24.47;15.47;;;7.40;99.90;;;;;;4969187;28;20213;-73
2022/11/26 00:37:45;;;;;;;27.30;16.17;;;7.40;99.90;;;;;;4968702;28;20249;-72
2022/11/26 00:40:22;;;;;;;30.60;16.17;;;7.40;99.90;;;;;;4969076;28;20253;-72
2022/11/26 00:42:49;;;;;;;27.00;15.83;;;7.40;99.90;;;;;;4971859;28;20305;-73
2022/11/26 00:45:19;;;;;;;34.27;18.07;;;7.40;99.90;;;;;;4971819;28;20237;-73
2022/11/26 00:47:46;;;;;;;30.07;18.60;;;7.40;99.90;;;;;;4971508;28;20322;-73
2022/11/26 00:50:17;;;;;;;33.87;17.50;;;7.40;99.90;;;;;;4972974;28;20709;-73
2022/11/26 00:52:47;;;;;;;30.93;16.13;;;7.40;99.90;;;;;;4972777;28;20301;-72
2022/11/26 00:55:21;;;;;;;28.23;16.20;;;7.40;99.90;;;;;;4972605;28;20302;-73
2022/11/26 00:57:48;;;;;;;31.90;19.77;;;7.40;99.90;;;;;;4972193;28;20728;-74
2022/11/26 01:00:17;;;;;;;26.93;16.80;;;7.40;99.90;;;;;;4972013;28;21058;-73
2022/11/26 01:02:43;;;;;;;29.67;15.80;;;7.40;99.90;;;;;;4971758;28;20211;-73
2022/11/26 01:05:11;;;;;;;29.80;15.77;;;7.40;99.90;;;;;;4972374;28;20234;-73
2022/11/26 01:07:38;;;;;;;29.07;15.97;;;7.40;99.90;;;;;;4972181;28;20329;-73
2022/11/26 01:10:14;;;;;;;28.07;15.90;;;7.40;99.90;;;;;;4972572;28;20242;-72
2022/11/26 01:12:41;;;;;;;26.20;16.23;;;7.40;99.90;;;;;;4972362;28;20230;-73
2022/11/26 01:15:08;;;;;;;32.23;16.43;;;7.40;99.90;;;;;;4972163;28;20215;-72
2022/11/26 01:17:35;;;;;;;26.70;15.67;;;7.40;99.90;;;;;;4971601;28;20290;-72
2022/11/26 01:20:02;;;;;;;28.57;17.37;;;7.30;99.90;;;;;;4971999;28;20709;-73
2022/11/26 01:22:29;;;;;;;31.90;16.57;;;7.30;99.90;;;;;;4971489;28;20207;-75
2022/11/26 01:24:56;;;;;;;30.90;15.73;;;7.30;99.90;;;;;;4961596;28;20333;-73
2022/11/26 01:27:24;;;;;;;30.30;16.77;;;7.40;99.90;;;;;;4969763;28;20297;-72
2022/11/26 01:29:51;;;;;;;27.87;16.40;;;7.40;99.90;;;;;;4971308;28;20242;-71
2022/11/26 01:32:18;;;;;;;31.63;17.93;;;7.40;99.90;;;;;;4982377;28;20297;-71
2022/11/26 01:34:44;;;;;;;28.90;17.60;;;7.40;99.90;;;;;;4991102;28;20249;-71
2022/11/26 01:37:13;;;;;;;31.40;18.30;;;7.40;99.90;;;;;;4952503;28;20211;-71
2022/11/26 01:39:40;;;;;;;32.73;18.47;;;7.30;99.90;;;;;;4969743;28;20215;-71
2022/11/26 01:42:19;;;;;;;29.37;18.93;;;7.40;99.90;;;;;;4971298;28;20684;-71
2022/11/26 01:44:47;;;;;;;40.80;19.10;;;7.40;99.90;;;;;;4970973;28;20257;-71
2022/11/26 01:47:22;;;;;;;38.93;19.93;;;7.40;99.90;;;;;;4971587;28;20301;-71
2022/11/26 01:50:26;;;;;;;35.87;18.23;;;7.40;99.90;;;;;;4971243;28;20234;-74
2022/11/26 01:52:54;;;;;;;32.63;18.57;;;7.40;99.90;;;;;;4970062;28;20206;-73
2022/11/26 01:55:21;;;;;;;38.87;19.03;;;7.40;99.90;;;;;;4970857;28;20293;-73
2022/11/26 01:57:49;;;;;;;32.77;18.27;;;7.40;99.90;;;;;;4971226;28;20301;-73
2022/11/26 02:00:18;;;;;;;35.23;18.50;;;7.40;99.90;;;;;;4970941;28;20207;-73
2022/11/26 02:02:45;;;;;;;39.93;19.50;;;7.40;99.90;;;;;;4970984;28;20305;-72
2022/11/26 02:05:19;;;;;;;41.13;20.70;;;7.40;99.90;;;;;;4971336;28;20653;-72
2022/11/26 02:07:47;;;;;;;35.40;19.73;;;7.40;99.90;;;;;;4971206;28;20218;-72
2022/11/26 02:10:14;;;;;;;44.30;21.37;;;7.40;99.90;;;;;;4971036;28;20298;-72
2022/11/26 02:12:42;;;;;;;44.40;23.63;;;7.40;99.90;;;;;;4970994;28;20314;-72
2022/11/26 02:15:11;;;;;;;45.87;23.57;;;7.40;99.90;;;;;;4984093;28;20301;-72
2022/11/26 02:17:43;;;;;;;46.50;25.13;;;7.40;99.90;;;;;;4990146;28;20256;-72
2022/11/26 02:20:34;;;;;;;49.57;21.83;;;7.40;99.90;;;;;;4987946;28;20289;-73
2022/11/26 02:23:34;;;;;;;54.53;22.83;;;7.40;99.90;;;;;;4970582;28;20199;-73
2022/11/26 02:26:27;;;;;;;45.57;21.50;;;7.40;99.90;;;;;;4951336;29;20202;-73
2022/11/26 02:29:07;;;;;;;43.63;22.53;;;7.40;99.90;;;;;;4951323;29;20633;-72
2022/11/26 02:31:41;;;;;;;49.97;23.23;;;7.40;99.90;;;;;;4955190;28;20203;-72
2022/11/26 02:34:15;;;;;;;50.37;22.13;;;7.40;99.90;;;;;;4970588;28;20290;-72
2022/11/26 02:36:48;;;;;;;62.57;23.37;;;7.40;99.90;;;;;;4970257;28;20322;-72
2022/11/26 02:39:17;;;;;;;62.50;24.27;;;7.40;99.90;;;;;;4970656;28;20211;-72
2022/11/26 02:41:46;;;;;;;53.67;23.33;;;7.50;99.90;;;;;;4970624;28;20294;-72
2022/11/26 02:44:14;;;;;;;66.07;23.93;;;7.50;99.90;;;;;;4970457;28;20326;-72
2022/11/26 02:46:45;;;;;;;59.60;24.87;;;7.50;99.90;;;;;;4970191;28;20211;-74
2022/11/26 02:49:16;;;;;;;57.47;25.20;;;7.50;99.90;;;;;;4970304;28;20291;-72
2022/11/26 02:51:44;;;;;;;57.13;24.03;;;7.50;99.90;;;;;;4969857;28;20376;-72
2022/11/26 02:54:12;;;;;;;60.47;23.77;;;7.50;99.90;;;;;;4970332;28;20222;-72
2022/11/26 02:56:40;;;;;;;58.50;23.87;;;7.50;99.90;;;;;;4969811;28;20246;-72
2022/11/26 02:59:07;;;;;;;50.03;23.53;;;7.50;99.90;;;;;;4970410;28;20301;-72
2022/11/26 03:01:41;;;;;;;57.30;23.77;;;7.50;99.90;;;;;;4969896;28;20246;-73
2022/11/26 03:04:14;;;;;;;50.57;23.77;;;7.50;99.90;;;;;;4969642;28;20310;-72
2022/11/26 03:06:42;;;;;;;49.50;23.50;;;7.50;99.90;;;;;;4969537;28;20329;-72
2022/11/26 03:09:09;;;;;;;47.30;23.13;;;7.50;99.90;;;;;;4970011;28;21070;-72
2022/11/26 03:11:36;;;;;;;51.50;23.27;;;7.50;99.90;;;;;;4969975;28;20211;-72
2022/11/26 03:14:03;;;;;;;54.67;24.13;;;7.50;99.90;;;;;;4969631;28;20215;-72
2022/11/26 03:16:30;;;;;;;52.97;23.30;;;7.60;99.90;;;;;;4969243;28;20310;-73
2022/11/26 03:18:58;;;;;;;55.13;24.53;;;7.50;99.90;;;;;;4969602;28;20202;-73
2022/11/26 03:21:26;;;;;;;50.33;23.70;;;7.50;99.90;;;;;;4969594;28;20324;-72
2022/11/26 03:23:53;;;;;;;49.10;23.40;;;7.50;99.90;;;;;;4969215;28;20227;-73
2022/11/26 03:26:20;;;;;;;55.33;23.57;;;7.50;99.90;;;;;;4969730;28;20215;-73
2022/11/26 03:28:47;;;;;;;56.90;24.27;;;7.50;99.90;;;;;;4969318;28;20211;-72
2022/11/26 03:31:14;;;;;;;50.03;23.37;;;7.50;99.90;;;;;;4968924;28;20235;-72
2022/11/26 03:33:41;;;;;;;52.73;22.70;;;7.50;99.90;;;;;;4969017;28;20950;-72
2022/11/26 03:36:08;;;;;;;50.00;23.77;;;7.50;99.90;;;;;;4969279;28;20686;-73
2022/11/26 03:38:36;;;;;;;56.10;23.33;;;7.60;99.90;;;;;;4969304;28;20302;-73
2022/11/26 03:41:04;;;;;;;50.87;24.40;;;7.60;99.90;;;;;;4969198;28;20206;-73
2022/11/26 03:43:31;;;;;;;53.57;24.63;;;7.50;99.90;;;;;;4969183;28;20302;-72
2022/11/26 03:45:58;;;;;;;57.23;24.47;;;7.60;99.90;;;;;;4968765;28;20222;-72
2022/11/26 03:48:25;;;;;;;56.40;24.00;;;7.50;99.90;;;;;;4968801;28;20575;-72
2022/11/26 03:50:51;;;;;;;46.03;24.17;;;7.60;99.90;;;;;;4968986;28;20253;-73
2022/11/26 03:53:18;;;;;;;58.20;23.90;;;7.60;99.90;;;;;;4968637;28;20599;-72
2022/11/26 03:55:47;;;;;;;54.87;24.27;;;7.60;99.90;;;;;;4968722;28;20310;-73
2022/11/26 03:58:14;;;;;;;53.13;24.17;;;7.60;99.90;;;;;;4968930;28;20302;-72
2022/11/26 04:00:41;;;;;;;52.10;23.80;;;7.60;99.90;;;;;;4968630;28;20305;-72
2022/11/26 04:03:08;;;;;;;49.83;25.27;;;7.60;99.90;;;;;;4968668;28;20301;-72
2022/11/26 04:05:35;;;;;;;52.67;24.93;;;7.60;99.90;;;;;;4968521;28;20250;-72
2022/11/26 04:08:02;;;;;;;51.87;24.00;;;7.60;99.90;;;;;;4968652;28;20226;-72
2022/11/26 04:10:28;;;;;;;52.20;23.70;;;7.60;99.90;;;;;;4968811;28;20211;-72
2022/11/26 04:12:57;;;;;;;55.23;24.27;;;7.60;99.90;;;;;;4968518;28;20298;-72
2022/11/26 04:15:24;;;;;;;56.47;24.37;;;7.60;99.90;;;;;;4967649;28;20301;-72
2022/11/26 04:17:50;;;;;;;49.50;24.23;;;7.60;99.90;;;;;;4968779;28;20301;-72
2022/11/26 04:20:17;;;;;;;61.93;25.13;;;7.60;99.90;;;;;;4968935;28;20297;-73
2022/11/26 04:22:44;;;;;;;58.47;25.20;;;7.60;99.90;;;;;;4968401;28;20207;-73
2022/11/26 04:25:11;;;;;;;60.33;24.73;;;7.60;99.90;;;;;;4968712;28;20242;-72
2022/11/26 04:27:38;;;;;;;52.07;24.03;;;7.60;99.90;;;;;;4968378;28;20249;-72
2022/11/26 04:30:08;;;;;;;46.43;23.57;;;7.70;99.90;;;;;;4968434;28;20770;-72
2022/11/26 04:32:35;;;;;;;55.60;23.37;;;7.60;99.90;;;;;;4968537;28;20285;-72
2022/11/26 04:35:02;;;;;;;53.63;23.53;;;7.70;99.90;;;;;;4968508;28;20215;-72
2022/11/26 04:37:29;;;;;;;57.63;24.53;;;7.70;99.90;;;;;;4968769;28;20309;-72
2022/11/26 04:39:56;;;;;;;47.13;22.17;;;7.70;99.90;;;;;;4968836;28;20298;-72
2022/11/26 04:42:23;;;;;;;43.83;23.03;;;7.70;99.90;;;;;;4968604;28;20289;-71
2022/11/26 04:44:50;;;;;;;49.87;23.00;;;7.70;99.90;;;;;;4967980;28;20784;-72
2022/11/26 04:47:18;;;;;;;44.37;21.23;;;7.70;99.90;;;;;;4968486;28;20237;-71
2022/11/26 04:49:45;;;;;;;47.03;21.67;;;7.70;99.90;;;;;;4968503;28;20322;-72
2022/11/26 04:52:12;;;;;;;45.60;21.90;;;7.70;99.90;;;;;;4949216;29;20330;-72
2022/11/26 04:54:39;;;;;;;41.37;21.23;;;7.80;99.90;;;;;;4949142;29;20302;-71
2022/11/26 04:57:05;;;;;;;41.97;22.17;;;7.80;99.90;;;;;;4949308;29;20762;-72
2022/11/26 04:59:32;;;;;;;39.03;20.53;;;7.80;99.90;;;;;;4948799;29;20674;-72
2022/11/26 05:01:59;;;;;;;40.83;21.20;;;7.80;99.90;;;;;;4957993;28;20231;-73
2022/11/26 05:04:28;;;;;;;41.07;20.47;;;7.80;99.90;;;;;;4968327;28;20713;-72
2022/11/26 05:06:55;;;;;;;39.97;20.50;;;7.80;99.90;;;;;;4968245;28;20788;-72
2022/11/26 05:09:22;;;;;;;33.50;19.63;;;7.80;99.90;;;;;;4968336;28;20215;-70
2022/11/26 05:11:49;;;;;;;34.13;18.47;;;7.80;99.90;;;;;;4968269;28;20305;-70
2022/11/26 05:14:16;;;;;;;42.30;20.27;;;7.80;99.90;;;;;;4967609;28;20294;-70
2022/11/26 05:16:43;;;;;;;38.47;19.17;;;7.80;99.90;;;;;;4968018;28;20632;-70
2022/11/26 05:19:09;;;;;;;41.33;19.27;;;7.80;99.90;;;;;;4968417;28;20313;-72
2022/11/26 05:21:38;;;;;;;34.63;19.13;;;7.80;99.90;;;;;;4967824;28;20229;-72
2022/11/26 05:24:05;;;;;;;32.27;18.20;;;7.80;99.90;;;;;;4967538;28;20230;-72
2022/11/26 05:26:32;;;;;;;36.40;18.43;;;7.80;99.90;;;;;;4968925;28;20225;-72
2022/11/26 05:28:59;;;;;;;36.73;19.23;;;7.80;99.90;;;;;;4971695;28;20293;-72
2022/11/26 05:31:27;;;;;;;40.87;18.23;;;7.80;99.90;;;;;;4971664;28;20294;-72
2022/11/26 05:33:54;;;;;;;36.10;18.57;;;7.80;99.90;;;;;;4971615;28;20256;-72
2022/11/26 05:36:21;;;;;;;32.57;17.20;;;7.80;99.90;;;;;;4971603;28;20207;-72
2022/11/26 05:38:49;;;;;;;34.40;17.80;;;7.80;99.90;;;;;;4971610;28;20301;-72
2022/11/26 05:41:16;;;;;;;35.93;17.83;;;7.80;99.90;;;;;;4971373;28;20203;-72
2022/11/26 05:43:42;;;;;;;42.97;17.90;;;7.80;99.90;;;;;;4971416;28;20329;-72
2022/11/26 05:46:09;;;;;;;31.30;17.03;;;7.80;99.90;;;;;;4970906;28;20326;-70
2022/11/26 05:48:36;;;;;;;35.87;17.10;;;7.80;99.90;;;;;;4971195;28;20403;-69
2022/11/26 05:51:03;;;;;;;31.90;16.40;;;7.80;99.90;;;;;;4971440;28;20313;-70
2022/11/26 05:53:30;;;;;;;30.63;16.43;;;7.80;99.90;;;;;;4970840;28;20677;-70
2022/11/26 05:55:58;;;;;;;39.90;17.27;;;7.80;99.90;;;;;;4971430;28;20242;-69
2022/11/26 05:58:25;;;;;;;31.77;16.43;;;7.80;99.90;;;;;;4971491;28;20210;-70
2022/11/26 06:00:52;;;;;;;38.10;16.40;;;7.80;99.90;;;;;;4970436;28;20577;-70
2022/11/26 06:03:19;;;;;;;35.73;16.53;;;7.80;99.90;;;;;;4971355;28;20305;-71
2022/11/26 06:05:46;;;;;;;34.07;16.07;;;7.80;99.90;;;;;;4969764;28;20613;-71
2022/11/26 06:08:13;;;;;;;33.90;15.97;;;7.80;99.90;;;;;;4970173;28;20217;-71
2022/11/26 06:10:42;;;;;;;34.23;15.73;;;7.80;99.90;;;;;;4970786;28;20699;-73
2022/11/26 06:13:10;;;;;;;34.90;16.23;;;7.80;99.90;;;;;;4970904;28;20202;-74
2022/11/26 06:15:37;;;;;;;37.47;15.70;;;7.90;99.90;;;;;;4970592;28;20305;-71
2022/11/26 06:18:04;;;;;;;32.67;14.90;;;7.80;99.90;;;;;;4970606;28;20219;-70
2022/11/26 06:20:31;;;;;;;34.20;16.10;;;7.80;99.90;;;;;;4970573;28;20740;-70
2022/11/26 06:22:58;;;;;;;35.27;14.93;;;7.80;99.90;;;;;;4970375;28;20293;-70
2022/11/26 06:25:25;;;;;;;30.73;15.00;;;7.80;99.90;;;;;;4970380;28;20266;-70
2022/11/26 06:27:52;;;;;;;34.90;14.83;;;7.80;99.90;;;;;;4970615;28;20752;-70
2022/11/26 06:30:20;;;;;;;27.90;14.17;;;7.80;99.90;;;;;;4970720;28;20210;-70
2022/11/26 06:32:47;;;;;;;26.43;13.87;;;7.80;99.90;;;;;;4970206;28;20263;-70
2022/11/26 06:35:14;;;;;;;29.73;14.93;;;7.80;99.90;;;;;;4970336;28;20207;-70
2022/11/26 06:37:42;;;;;;;23.83;13.20;;;7.80;99.90;;;;;;4969906;28;20230;-70
2022/11/26 06:40:11;;;;;;;31.40;13.67;;;7.80;99.90;;;;;;4970267;28;20764;-71
2022/11/26 06:42:37;;;;;;;31.03;12.80;;;7.80;99.90;;;;;;4970414;28;20203;-71
2022/11/26 06:45:05;;;;;;;23.70;12.10;;;7.80;99.90;;;;;;4970084;28;20362;-70
2022/11/26 06:47:33;;;;;;;24.93;13.77;;;7.80;99.90;;;;;;4970149;28;20720;-71
2022/11/26 06:50:00;;;;;;;25.20;13.07;;;7.80;99.90;;;;;;4969771;28;20297;-71
2022/11/26 06:52:27;;;;;;;30.53;13.60;;;7.80;99.90;;;;;;4970065;28;20294;-70
2022/11/26 06:54:54;;;;;;;28.70;12.93;;;7.80;99.90;;;;;;4970522;28;20298;-70
2022/11/26 06:57:21;;;;;;;29.07;13.30;;;7.80;99.90;;;;;;4970063;28;20653;-71
2022/11/26 06:59:48;;;;;;;30.73;13.27;;;7.80;99.90;;;;;;4969847;28;20211;-70
2022/11/26 07:02:15;;;;;;;27.77;12.47;;;7.80;99.90;;;;;;4969881;28;20684;-70
2022/11/26 07:04:43;;;;;;;32.60;13.03;;;7.80;99.90;;;;;;4969853;28;20317;-70
2022/11/26 07:07:10;;;;;;;28.03;13.13;;;7.80;99.90;;;;;;4969771;28;20246;-70
2022/11/26 07:09:38;;;;;;;29.13;12.93;;;7.70;99.90;;;;;;4969911;28;20738;-70
2022/11/26 07:12:05;;;;;;;32.80;12.83;;;7.70;99.90;;;;;;4969468;28;20576;-70
2022/11/26 07:14:32;;;;;;;27.07;13.83;;;7.80;99.90;;;;;;4969017;28;20306;-70
2022/11/26 07:16:59;;;;;;;29.40;12.70;;;7.80;99.90;;;;;;4969629;28;20217;-70
2022/11/26 07:19:26;;;;;;;27.67;12.70;;;7.80;99.90;;;;;;4969810;28;20836;-71
2022/11/26 07:21:54;;;;;;;27.67;13.50;;;7.80;99.90;;;;;;4969474;28;20210;-71
2022/11/26 07:24:21;;;;;;;28.83;12.53;;;7.80;99.90;;;;;;4969525;28;20552;-71
2022/11/26 07:26:48;;;;;;;29.60;12.30;;;7.70;99.90;;;;;;4969227;28;20270;-71
2022/11/26 07:29:15;;;;;;;26.67;12.63;;;7.80;99.90;;;;;;4969575;28;20238;-72
2022/11/26 07:31:42;;;;;;;26.70;12.33;;;7.80;99.90;;;;;;4969244;28;20207;-72
2022/11/26 07:34:09;;;;;;;33.13;12.17;;;7.80;99.90;;;;;;4969645;28;20321;-72
2022/11/26 07:36:41;;;;;;;27.37;11.50;;;7.70;99.90;;;;;;4954621;28;20214;-72
2022/11/26 07:39:11;;;;;;;26.90;11.63;;;7.80;99.90;;;;;;4969450;28;20297;-72
2022/11/26 07:41:38;;;;;;;25.47;11.77;;;7.80;99.90;;;;;;4969581;28;20203;-72
2022/11/26 07:44:05;;;;;;;24.37;11.33;;;7.80;99.90;;;;;;4969289;28;20604;-72
2022/11/26 07:46:32;;;;;;;25.83;10.60;;;7.80;99.90;;;;;;4968783;28;20242;-73
2022/11/26 07:48:59;;;;;;;25.93;11.07;;;7.80;99.90;;;;;;4969178;28;20286;-73
2022/11/26 07:51:27;;;;;;;24.53;10.03;;;7.80;99.90;;;;;;4969273;28;20349;-73
2022/11/26 07:53:55;;;;;;;23.97;10.03;;;7.80;99.90;;;;;;4969290;28;20327;-73
2022/11/26 07:56:23;;;;;;;24.83;10.20;;;7.80;99.90;;;;;;4969276;28;20305;-73
2022/11/26 07:58:50;;;;;;;23.40;10.40;;;7.80;99.90;;;;;;4968972;28;20696;-71
2022/11/26 08:01:18;;;;;;;17.93;9.57;;;7.80;99.90;;;;;;4968612;28;20883;-72
2022/11/26 08:03:47;;;;;;;29.17;10.20;;;7.80;99.90;;;;;;4968716;28;20736;-71
2022/11/26 08:06:15;;;;;;;24.77;9.23;;;7.80;99.90;;;;;;4968777;28;20269;-71
2022/11/26 08:08:42;;;;;;;22.43;9.50;;;7.80;99.90;;;;;;4968682;28;20215;-72
2022/11/26 08:11:15;;;;;;;23.87;9.67;;;7.80;99.90;;;;;;4968813;28;20293;-72
2022/11/26 08:13:44;;;;;;;20.07;9.30;;;7.80;99.90;;;;;;4957207;28;20701;-72
2022/11/26 08:16:12;;;;;;;21.97;9.30;;;7.80;99.90;;;;;;4968665;28;20306;-72
2022/11/26 08:18:39;;;;;;;29.73;9.37;;;7.90;99.90;;;;;;4968906;28;20290;-72
2022/11/26 08:21:06;;;;;;;22.00;9.07;;;7.90;99.90;;;;;;4949828;28;20217;-72
2022/11/26 08:23:33;;;;;;;22.87;8.47;;;7.90;99.90;;;;;;4968459;28;20289;-72
2022/11/26 08:26:06;;;;;;;18.37;8.80;;;7.90;99.90;;;;;;4968778;28;20669;-72
2022/11/26 08:28:32;;;;;;;18.17;8.27;;;7.90;99.90;;;;;;4968963;28;20290;-73
2022/11/26 08:31:05;;;;;;;18.57;8.50;;;7.90;99.90;;;;;;4968721;28;20234;-72
2022/11/26 08:33:33;;;;;;;14.10;7.50;;;7.90;99.90;;;;;;4968898;28;20297;-73
2022/11/26 08:36:00;;;;;;;17.70;7.60;;;7.90;99.90;;;;;;4969126;28;20243;-72
2022/11/26 08:38:28;;;;;;;19.03;7.80;;;7.90;99.90;;;;;;4968982;28;20210;-71
2022/11/26 08:40:54;;;;;;;18.07;7.63;;;7.90;99.90;;;;;;4968549;28;20309;-71
2022/11/26 08:43:22;;;;;;;15.53;7.57;;;7.90;99.90;;;;;;4968854;28;20346;-71
2022/11/26 08:45:54;;;;;;;16.90;7.60;;;7.90;99.90;;;;;;4968197;28;20784;-71
2022/11/26 08:48:23;;;;;;;24.10;8.87;;;7.90;99.90;;;;;;4968848;28;20210;-71
2022/11/26 08:50:50;;;;;;;21.60;8.00;;;7.90;99.90;;;;;;4968433;28;20776;-71
2022/11/26 08:53:17;;;;;;;19.93;7.70;;;7.90;99.90;;;;;;4968540;28;20286;-71
2022/11/26 08:55:44;;;;;;;21.23;7.63;;;7.90;99.90;;;;;;4955922;28;20205;-73
2022/11/26 08:58:11;;;;;;;19.13;7.90;;;7.90;99.90;;;;;;4968733;28;20215;-73
2022/11/26 09:00:38;;;;;;;19.87;8.30;;;7.90;99.90;;;;;;4968054;28;20289;-73
2022/11/26 09:03:05;;;;;;;21.90;8.97;;;8.00;99.90;;;;;;4971785;28;20206;-73
2022/11/26 09:05:33;;;;;;;24.53;8.50;;;8.00;99.90;;;;;;4971510;28;20337;-72
2022/11/26 09:08:00;;;;;;;20.10;8.60;;;8.00;99.90;;;;;;4971898;28;20289;-72
2022/11/26 09:10:27;;;;;;;16.17;7.83;;;8.00;99.90;;;;;;4971941;28;20305;-72
2022/11/26 09:12:54;;;;;;;24.63;8.10;;;8.00;99.90;;;;;;4972267;28;20684;-73
2022/11/26 09:15:20;;;;;;;17.10;8.00;;;8.00;99.90;;;;;;4971403;28;20313;-72
2022/11/26 09:17:47;;;;;;;21.83;8.17;;;8.00;99.90;;;;;;4971223;28;20286;-72
2022/11/26 09:20:14;;;;;;;19.33;7.97;;;8.00;99.90;;;;;;4971743;28;20203;-72
2022/11/26 09:22:42;;;;;;;20.37;7.90;;;8.10;99.90;;;;;;4971141;28;20215;-72
2022/11/26 09:25:10;;;;;;;20.13;7.93;;;8.00;99.90;;;;;;4971244;28;20769;-73
2022/11/26 09:27:37;;;;;;;14.77;8.67;;;8.00;99.90;;;;;;4970717;28;20302;-72
2022/11/26 09:30:04;;;;;;;26.67;8.03;;;8.00;99.90;;;;;;4970632;28;20693;-71
2022/11/26 09:32:33;;;;;;;21.57;7.50;;;8.00;99.90;;;;;;4971011;28;20215;-72
2022/11/26 09:35:00;;;;;;;18.53;6.83;;;8.00;99.90;;;;;;4970884;28;20686;-72
2022/11/26 09:37:26;;;;;;;16.27;6.70;;;8.00;99.90;;;;;;4971222;28;20293;-71
2022/11/26 09:39:55;;;;;;;19.33;7.67;;;8.00;99.90;;;;;;4971082;28;20282;-72
2022/11/26 09:42:32;;;;;;;17.27;7.50;;;8.00;99.90;;;;;;4970915;28;20285;-72
2022/11/26 09:45:07;;;;;;;21.30;7.33;;;8.00;99.90;;;;;;4965909;28;20222;-73
2022/11/26 09:47:39;;;;;;;20.67;6.87;;;8.10;99.90;;;;;;4961579;28;20267;-76
2022/11/26 09:50:19;;;;;;;16.43;6.93;;;8.00;99.90;;;;;;4953233;28;20279;-72
2022/11/26 09:52:53;;;;;;;20.00;6.53;;;8.00;99.90;;;;;;4970680;28;20214;-73
2022/11/26 09:55:24;;;;;;;17.70;7.23;;;8.00;99.90;;;;;;4970320;28;20217;-73
2022/11/26 09:57:59;;;;;;;15.33;7.10;;;8.00;99.90;;;;;;4970622;28;20223;-73
2022/11/26 10:00:28;;;;;;;20.90;7.87;;;8.00;99.90;;;;;;4970477;28;20195;-73
2022/11/26 10:02:56;;;;;;;16.23;6.67;;;7.90;99.90;;;;;;4969441;28;20218;-73
2022/11/26 10:05:44;;;;;;;17.93;6.50;;;7.90;99.90;;;;;;4968112;28;20215;-73
2022/11/26 10:08:33;;;;;;;16.00;7.07;;;7.90;99.90;;;;;;4968685;28;20268;-73
2022/11/26 10:11:08;;;;;;;17.43;6.30;;;7.90;99.90;;;;;;4968878;28;20195;-73
2022/11/26 10:13:44;;;;;;;18.30;7.03;;;7.90;99.90;;;;;;4967971;28;20220;-72
2022/11/26 10:16:19;;;;;;;16.13;7.03;;;7.90;99.90;;;;;;4968442;28;20643;-73
2022/11/26 10:18:57;;;;;;;21.80;8.10;;;7.90;99.90;;;;;;4967612;28;20221;-72
2022/11/26 10:21:26;;;;;;;21.00;8.43;;;7.90;99.90;;;;;;4968444;28;20230;-73
2022/11/26 10:23:58;;;;;;;18.37;7.90;;;7.90;99.90;;;;;;4968083;28;20297;-72
2022/11/26 10:26:30;;;;;;;23.40;7.70;;;7.90;99.90;;;;;;4968182;28;20223;-73
2022/11/26 10:29:13;;;;;;;23.47;8.33;;;7.90;99.90;;;;;;4968104;28;20293;-73
2022/11/26 10:31:42;;;;;;;19.60;8.63;;;7.90;99.90;;;;;;4967370;28;20199;-73
2022/11/26 10:34:14;;;;;;;22.53;8.77;;;7.90;99.90;;;;;;4968466;28;20631;-73
2022/11/26 10:36:44;;;;;;;16.53;7.60;;;7.90;99.90;;;;;;4968005;28;20213;-73
2022/11/26 10:39:14;;;;;;;16.87;8.87;;;7.90;99.90;;;;;;4967915;28;20670;-73
2022/11/26 10:41:43;;;;;;;21.10;8.80;;;7.90;99.90;;;;;;4967862;28;20218;-73
2022/11/26 10:44:31;;;;;;;19.87;7.80;;;7.90;99.90;;;;;;4968142;28;20338;-73
2022/11/26 10:46:59;;;;;;;17.10;8.93;;;7.90;99.90;;;;;;4967956;28;20313;-72
2022/11/26 10:49:28;;;;;;;20.23;8.90;;;7.90;99.90;;;;;;4981449;28;20210;-72
2022/11/26 10:52:00;;;;;;;22.10;9.73;;;7.90;99.90;;;;;;4987401;28;20212;-73
2022/11/26 10:54:31;;;;;;;24.97;10.97;;;7.90;99.90;;;;;;4981473;28;20234;-72
2022/11/26 10:57:06;;;;;;;14.30;8.47;;;7.90;99.90;;;;;;4968772;28;20294;-72
2022/11/26 10:59:39;;;;;;;23.43;9.70;;;7.90;99.90;;;;;;4968302;28;20731;-72
2022/11/26 11:02:25;;;;;;;20.43;9.70;;;8.00;99.90;;;;;;4968083;28;20203;-72
2022/11/26 11:04:55;;;;;;;20.87;9.13;;;8.00;99.90;;;;;;4968048;28;20305;-72
2022/11/26 11:07:33;;;;;;;20.27;9.47;;;8.00;99.90;;;;;;4967771;28;20245;-72
2022/11/26 11:10:05;;;;;;;24.67;10.73;;;8.00;99.90;;;;;;4968607;28;20286;-73
2022/11/26 11:12:34;;;;;;;21.27;9.60;;;8.00;99.90;;;;;;4968121;28;20305;-72
2022/11/26 11:15:20;;;;;;;17.30;9.13;;;8.00;99.90;;;;;;4968131;28;20588;-72
2022/11/26 11:17:55;;;;;;;18.30;9.03;;;8.00;99.90;;;;;;4967748;28;20575;-71
2022/11/26 11:20:41;;;;;;;25.27;9.93;;;8.00;99.90;;;;;;4967939;28;20297;-72
2022/11/26 11:23:21;;;;;;;19.93;9.03;;;8.00;99.90;;;;;;4967764;28;20203;-72
2022/11/26 11:25:58;;;;;;;18.77;9.20;;;8.10;99.90;;;;;;4967705;28;20254;-71
2022/11/26 11:28:29;;;;;;;18.23;9.93;;;8.10;99.90;;;;;;4967639;28;20653;-72
2022/11/26 11:31:05;;;;;;;20.57;10.23;;;8.10;99.90;;;;;;4967537;28;20229;-72
2022/11/26 11:33:32;;;;;;;24.20;11.17;;;8.10;99.90;;;;;;4963501;28;20195;-72
2022/11/26 11:36:02;;;;;;;20.17;9.80;;;8.10;99.90;;;;;;4968241;28;20305;-72
2022/11/26 11:38:31;;;;;;;19.97;9.30;;;8.10;99.90;;;;;;4968377;28;20217;-72
2022/11/26 11:41:02;;;;;;;17.53;8.73;;;8.10;99.90;;;;;;4967266;28;20290;-72
2022/11/26 11:43:35;;;;;;;17.20;9.47;;;8.10;99.90;;;;;;4967532;28;20967;-72
2022/11/26 11:46:18;;;;;;;22.73;9.43;;;8.10;99.90;;;;;;4967642;28;20946;-72
2022/11/26 11:48:56;;;;;;;19.43;8.90;;;8.10;99.90;;;;;;4967477;28;20309;-71
2022/11/26 11:51:33;;;;;;;21.73;8.87;;;8.10;99.90;;;;;;4967327;28;20313;-72
2022/11/26 11:54:12;;;;;;;15.73;9.07;;;8.10;99.90;;;;;;4967499;28;20305;-72
2022/11/26 11:56:44;;;;;;;16.90;8.50;;;8.10;99.90;;;;;;4967417;28;20250;-72
2022/11/26 11:59:57;;;;;;;18.77;8.10;;;8.10;99.90;;;;;;4967451;28;20195;-72
2022/11/26 12:02:45;;;;;;;13.03;7.67;;;8.10;99.90;;;;;;4967307;28;20611;-72
2022/11/26 12:05:33;;;;;;;12.83;6.93;;;8.10;99.90;;;;;;4967286;28;20191;-72
2022/11/26 12:08:12;;;;;;;16.70;6.90;;;8.10;99.90;;;;;;4967252;28;20231;-71
2022/11/26 12:10:46;;;;;;;14.90;6.97;;;8.10;99.90;;;;;;4967273;28;20650;-72
2022/11/26 12:13:17;;;;;;;13.60;6.00;;;8.10;99.90;;;;;;4967456;28;20209;-72
2022/11/26 12:15:51;;;;;;;11.67;5.60;;;8.10;99.90;;;;;;4967366;28;20261;-72
2022/11/26 12:18:25;;;;;;;13.50;5.43;;;8.10;99.90;;;;;;4964779;28;20199;-70
2022/11/26 12:20:55;;;;;;;12.33;5.97;;;8.10;99.90;;;;;;4967160;28;20199;-71
2022/11/26 12:23:31;;;;;;;11.57;4.33;;;8.20;99.90;;;;;;4966919;28;20301;-71
2022/11/26 12:26:05;;;;;;;10.23;4.90;;;8.20;99.90;;;;;;4967510;28;20205;-72
2022/11/26 12:28:36;;;;;;;13.20;4.40;;;8.10;99.90;;;;;;4966766;28;20199;-72
2022/11/26 12:31:14;;;;;;;8.23;4.60;;;8.20;99.90;;;;;;4966266;28;20194;-72
2022/11/26 12:33:46;;;;;;;6.27;3.73;;;8.20;99.90;;;;;;4966895;28;20195;-72
2022/11/26 12:36:19;;;;;;;11.27;4.80;;;8.10;99.90;;;;;;4966099;28;20896;-72
2022/11/26 12:38:51;;;;;;;11.27;4.93;;;8.10;99.90;;;;;;4966907;28;20815;-72
2022/11/26 12:41:21;;;;;;;11.10;4.50;;;8.10;99.90;;;;;;4966365;28;20215;-72
2022/11/26 12:43:53;;;;;;;7.87;4.10;;;8.10;99.90;;;;;;4966730;28;20715;-72
2022/11/26 12:46:26;;;;;;;12.17;4.70;;;8.10;99.90;;;;;;4966606;28;20226;-72
2022/11/26 12:48:58;;;;;;;8.83;4.70;;;8.10;99.90;;;;;;4966987;28;20234;-72
2022/11/26 12:51:33;;;;;;;10.97;4.83;;;8.10;99.90;;;;;;4966629;28;20253;-72
2022/11/26 12:54:10;;;;;;;8.83;4.90;;;8.00;99.90;;;;;;4966810;28;20245;-72